Time;durP1;ratioP1;P1;durP2;ratioP2;P2;SDS_P1;SDS_P2;PMS_P1;PMS_P2;Temp;Humidity;BMP_temperature;BMP_pressure;BME280_temperature;BME280_humidity;BME280_pressure;Samples;Min_cycle;Max_cycle;Signal;HPM_P1;HPM_P2
2022/09/01 00:00:27;;;;;;;;;;;;;;;-142.75;100.00;77296.72;5035696;28;19921;-69
2022/09/01 00:02:52;;;;;;;;;;;;;;;-142.75;100.00;77306.56;5035768;28;19913;-69
2022/09/01 00:05:18;;;;;;;;;;;;;;;-142.75;100.00;77306.56;5017973;28;20393;-70
2022/09/01 00:07:43;;;;;;;;;;;;;;;-142.75;100.00;77302.63;5035223;28;19947;-69
2022/09/01 00:10:08;;;;;;;;;;;;;;;-142.75;100.00;77304.59;5035461;28;19917;-69
2022/09/01 00:12:34;;;;;;;;;;;;;;;-142.75;100.00;77310.50;5035520;28;20272;-69
2022/09/01 00:14:59;;;;;;;;;;;;;;;-142.75;100.00;77318.38;5017733;28;19913;-69
2022/09/01 00:17:25;;;;;;;;;;;;;;;-142.75;100.00;77310.50;5034961;28;19924;-69
2022/09/01 00:19:51;;;;;;;;;;;;;;;-142.75;100.00;77314.44;5035302;28;19914;-69
2022/09/01 00:22:16;;;;;;;;;;;;;;;-142.75;100.00;77312.47;5035306;28;19913;-69
2022/09/01 00:24:41;;;;;;;;;;;;;;;-142.75;100.00;77308.53;5035194;28;19933;-70
2022/09/01 00:27:06;;;;;;;;;;;;;;;-142.75;100.00;77322.31;5034857;28;19913;-69
2022/09/01 00:29:32;;;;;;;;;;;;;;;-142.75;100.00;77324.28;5035216;28;19920;-69
2022/09/01 00:31:57;;;;;;;;;;;;;;;-142.75;100.00;77328.22;5017513;28;20272;-69
2022/09/01 00:34:22;;;;;;;;;;;;;;;-142.75;100.00;77318.38;5017391;28;19967;-68
2022/09/01 00:36:47;;;;;;;;;;;;;;;-142.75;100.00;77318.38;5033808;28;19959;-69
2022/09/01 00:39:13;;;;;;;;;;;;;;;-142.75;100.00;77324.28;5034932;28;19913;-69
2022/09/01 00:41:40;;;;;;;;;;;;;;;-142.75;100.00;77326.25;5034850;28;20008;-68
2022/09/01 00:44:07;;;;;;;;;;;;;;;-142.75;100.00;77324.28;5034950;28;20004;-69
2022/09/01 00:46:40;;;;;;;;;;;;;;;-142.75;100.00;77314.44;5034678;28;20298;-69
2022/09/01 00:49:10;;;;;;;;;;;;;;;-142.75;100.00;77314.44;5034740;28;19913;-69
2022/09/01 00:51:37;;;;;;;;;;;;;;;-142.75;100.00;77318.38;5016929;28;19963;-69
2022/09/01 00:54:04;;;;;;;;;;;;;;;-142.75;100.00;77340.03;5016953;28;19940;-69
2022/09/01 00:56:30;;;;;;;;;;;;;;;-142.75;100.00;77342.00;5016712;28;19913;-69
2022/09/01 00:58:56;;;;;;;;;;;;;;;-142.75;100.00;77330.19;5017089;28;20328;-68
2022/09/01 01:01:22;;;;;;;;;;;;;;;-142.75;100.00;77322.31;5034542;28;19924;-69
2022/09/01 01:03:47;;;;;;;;;;;;;;;-142.75;100.00;77326.25;5034552;28;19919;-69
2022/09/01 01:06:15;;;;;;;;;;;;;;;-142.75;100.00;77336.09;5034426;28;19919;-69
2022/09/01 01:08:42;;;;;;;;;;;;;;;-142.75;100.00;77332.16;5034101;28;19913;-69
2022/09/01 01:11:16;;;;;;;;;;;;;;;-142.75;100.00;77334.13;5016738;28;20004;-67
2022/09/01 01:13:48;;;;;;;;;;;;;;;-142.75;100.00;77347.91;5034407;28;19917;-69
2022/09/01 01:16:14;;;;;;;;;;;;;;;-142.75;100.00;77349.88;5034355;28;20386;-69
2022/09/01 01:18:40;;;;;;;;;;;;;;;-142.75;100.00;77353.81;5033799;28;19924;-68
2022/09/01 01:23:56;;;;;;;;;;;;;;;-142.75;100.00;77351.84;5034538;28;19920;-69
2022/09/01 01:26:22;;;;;;;;;;;;;;;-142.75;100.00;77351.84;5034112;28;19917;-68
2022/09/01 01:28:47;;;;;;;;;;;;;;;-142.75;100.00;77361.69;5033797;28;19920;-68
2022/09/01 01:31:14;;;;;;;;;;;;;;;-142.75;100.00;77351.84;5034000;28;20290;-69
2022/09/01 01:33:42;;;;;;;;;;;;;;;-142.75;100.00;77357.75;5044121;28;20551;-68
2022/09/01 01:36:12;;;;;;;;;;;;;;;-142.75;100.00;77357.75;5042483;28;19959;-68
2022/09/01 01:38:42;;;;;;;;;;;;;;;-142.75;100.00;77363.66;5053514;28;19915;-68
2022/09/01 01:41:08;;;;;;;;;;;;;;;-142.75;100.00;77361.69;5035976;28;20286;-68
2022/09/01 01:43:34;;;;;;;;;;;;;;;-142.75;100.00;77361.69;5053777;28;19909;-68
2022/09/01 01:46:01;;;;;;;;;;;;;;;-142.75;100.00;77361.69;5053729;28;20341;-68
2022/09/01 01:48:27;;;;;;;;;;;;;;;-142.75;100.00;77365.63;5053282;28;19939;-68
2022/09/01 01:50:53;;;;;;;;;;;;;;;-142.75;100.00;77363.66;5035763;28;20362;-68
2022/09/01 01:53:19;;;;;;;;;;;;;;;-142.75;100.00;77377.44;5035730;28;19936;-68
2022/09/01 01:55:48;;;;;;;;;;;;;;;-142.75;100.00;77375.47;5053762;28;20363;-68
2022/09/01 01:58:14;;;;;;;;;;;;;;;-142.75;100.00;77373.50;5053077;28;19912;-68
2022/09/01 02:00:41;;;;;;;;;;;;;;;-142.75;100.00;77371.53;5053367;28;19924;-67
2022/09/01 02:03:06;;;;;;;;;;;;;;;-142.75;100.00;77361.69;5053461;28;19912;-68
2022/09/01 02:05:34;;;;;;;;;;;;;;;-142.75;100.00;77369.56;5053308;28;20294;-68
2022/09/01 02:08:03;;;;;;;;;;;;;;;-142.75;100.00;77377.44;5052843;28;20458;-68
2022/09/01 02:10:30;;;;;;;;;;;;;;;-142.75;100.00;77373.50;5053285;28;20378;-67
2022/09/01 02:12:56;;;;;;;;;;;;;;;-142.75;100.00;77385.31;5053081;28;20401;-68
2022/09/01 02:15:22;;;;;;;;;;;;;;;-142.75;100.00;77369.56;5053185;28;20011;-68
2022/09/01 02:17:47;;;;;;;;;;;;;;;-142.75;100.00;77381.38;5073296;23;19974;-63
2022/09/01 02:20:14;;;;;;;;;;;;;;;-142.75;100.00;77381.38;5097105;28;20424;-66
2022/09/01 02:22:42;;;;;;;;;;;;;;;-142.75;100.00;77397.13;5096675;28;19920;-66
2022/09/01 02:25:08;;;;;;;;;;;;;;;-142.75;100.00;77389.25;5097257;28;20324;-66
2022/09/01 02:27:38;;;;;;;;;;;;;;;-142.75;100.00;77389.25;5095827;28;19912;-66
2022/09/01 02:30:05;;;;;;;;;;;;;;;-142.75;100.00;77395.16;5097253;28;19919;-65
2022/09/01 02:32:30;;;;;;;;;;;;;;;-142.75;100.00;77401.06;5095879;28;19912;-66
2022/09/01 02:35:00;;;;;;;;;;;;;;;-142.75;100.00;77393.19;5096741;28;19912;-66
2022/09/01 02:37:25;;;;;;;;;;;;;;;-142.75;100.00;77401.06;5096161;28;19919;-66
2022/09/01 02:39:58;;;;;;;;;;;;;;;-142.75;100.00;77397.13;5096678;28;20006;-66
2022/09/01 02:42:26;;;;;;;;;;;;;;;-142.75;100.00;77399.09;5097113;28;19919;-66
2022/09/01 02:44:55;;;;;;;;;;;;;;;-142.75;100.00;77403.03;5095145;28;19916;-65
2022/09/01 02:47:22;;;;;;;;;;;;;;;-142.75;100.00;77410.91;5096606;28;20297;-65
2022/09/01 02:49:47;;;;;;;;;;;;;;;-142.75;100.00;77416.81;5095420;28;19919;-66
2022/09/01 02:52:14;;;;;;;;;;;;;;;-142.75;100.00;77424.69;5098691;28;19947;-66
2022/09/01 02:54:40;;;;;;;;;;;;;;;-142.75;100.00;77420.75;5101530;28;19935;-66
2022/09/01 02:57:07;;;;;;;;;;;;;;;-142.75;100.00;77412.88;5101207;28;20380;-66
2022/09/01 02:59:33;;;;;;;;;;;;;;;-142.75;100.00;77410.91;5101360;28;19918;-66
2022/09/01 03:01:58;;;;;;;;;;;;;;;-142.75;100.00;77418.78;5101812;28;19955;-66
2022/09/01 03:04:25;;;;;;;;;;;;;;;-142.75;100.00;77424.69;5101397;28;19924;-66
2022/09/01 03:06:53;;;;;;;;;;;;;;;-142.75;100.00;77432.56;5098647;28;19912;-66
2022/09/01 03:09:18;;;;;;;;;;;;;;;-142.75;100.00;77434.53;5100252;28;19939;-66
2022/09/01 03:11:45;;;;;;;;;;;;;;;-142.75;100.00;77448.34;5099100;28;20366;-66
2022/09/01 03:14:11;;;;;;;;;;;;;;;-142.75;100.00;77452.25;5099945;28;20477;-66
2022/09/01 03:16:37;;;;;;;;;;;;;;;-142.75;100.00;77454.25;5097741;28;19912;-66
2022/09/01 03:19:06;;;;;;;;;;;;;;;-142.75;100.00;77456.22;5099041;28;19916;-66
2022/09/01 03:21:31;;;;;;;;;;;;;;;-142.75;100.00;77458.16;5098652;28;19919;-66
2022/09/01 03:23:57;;;;;;;;;;;;;;;-142.75;100.00;77454.25;5099059;28;20324;-66
2022/09/01 03:26:22;;;;;;;;;;;;;;;-142.75;100.00;77464.09;5098640;28;20045;-66
2022/09/01 03:28:48;;;;;;;;;;;;;;;-142.75;100.00;77470.00;5098260;28;19919;-66
2022/09/01 03:31:14;;;;;;;;;;;;;;;-142.75;100.00;77470.00;5098969;28;19913;-66
2022/09/01 03:33:39;;;;;;;;;;;;;;;-142.75;100.00;77464.09;5097903;28;19923;-65
2022/09/01 03:36:05;;;;;;;;;;;;;;;-142.75;100.00;77468.03;5097411;28;19912;-66
2022/09/01 03:38:31;;;;;;;;;;;;;;;-142.75;100.00;77470.00;5096825;28;19919;-66
2022/09/01 03:41:01;;;;;;;;;;;;;;;-142.75;100.00;77464.09;5096979;28;19985;-66
2022/09/01 03:43:28;;;;;;;;;;;;;;;-142.75;100.00;77477.88;5097179;28;20389;-66
2022/09/01 03:45:54;;;;;;;;;;;;;;;-142.75;100.00;77468.03;5096746;28;19912;-66
2022/09/01 03:48:20;;;;;;;;;;;;;;;-142.75;100.00;77468.03;5096669;28;20030;-66
2022/09/01 03:50:46;;;;;;;;;;;;;;;-142.75;100.00;77468.03;5096666;28;19913;-66
2022/09/01 03:53:12;;;;;;;;;;;;;;;-142.75;100.00;77477.88;5096412;28;20002;-66
2022/09/01 03:55:38;;;;;;;;;;;;;;;-142.75;100.00;77483.78;5096326;28;19919;-66
2022/09/01 03:58:05;;;;;;;;;;;;;;;-142.75;100.00;77483.78;5096513;28;19912;-66
2022/09/01 04:00:32;;;;;;;;;;;;;;;-142.75;100.00;77481.81;5096374;28;19984;-66
2022/09/01 04:03:00;;;;;;;;;;;;;;;-142.75;100.00;77483.78;5096063;28;19927;-66
2022/09/01 04:05:27;;;;;;;;;;;;;;;-142.75;100.00;77485.75;5095123;28;19912;-66
2022/09/01 04:07:54;;;;;;;;;;;;;;;-142.75;100.00;77493.63;5095148;28;19975;-66
2022/09/01 04:10:21;;;;;;;;;;;;;;;-142.75;100.00;77509.38;5096749;28;19915;-66
2022/09/01 04:12:46;;;;;;;;;;;;;;;-142.75;100.00;77499.53;5098335;28;19920;-66
2022/09/01 04:15:12;;;;;;;;;;;;;;;-142.75;100.00;77501.50;5100388;28;19913;-66
2022/09/01 04:20:22;;;;;;;;;;;;;;;-142.75;100.00;77509.38;5099958;28;19923;-66
2022/09/01 04:22:49;;;;;;;;;;;;;;;-142.75;100.00;77509.38;5099979;28;19943;-66
2022/09/01 04:25:15;;;;;;;;;;;;;;;-142.75;100.00;77505.44;5098063;28;19916;-66
2022/09/01 04:27:40;;;;;;;;;;;;;;;-142.75;100.00;77503.47;5099299;28;19971;-66
2022/09/01 04:30:09;;;;;;;;;;;;;;;-142.75;100.00;77503.47;5100233;28;20321;-66
2022/09/01 04:32:36;;;;;;;;;;;;;;;-142.75;100.00;77503.47;5099573;28;19912;-66
2022/09/01 04:35:02;;;;;;;;;;;;;;;-142.75;100.00;77515.28;5099662;28;19970;-66
2022/09/01 04:37:28;;;;;;;;;;;;;;;-142.75;100.00;77503.47;5098859;28;19920;-65
2022/09/01 04:39:54;;;;;;;;;;;;;;;-142.75;100.00;77495.59;5099857;28;19934;-65
2022/09/01 04:42:22;;;;;;;;;;;;;;;-142.75;100.00;77503.47;5100438;28;19923;-64
2022/09/01 04:44:48;;;;;;;;;;;;;;;-142.75;100.00;77493.63;5099822;28;19962;-66
2022/09/01 04:47:15;;;;;;;;;;;;;;;-142.75;100.00;77501.50;5098607;28;19916;-66
2022/09/01 04:49:40;;;;;;;;;;;;;;;-142.75;100.00;77497.56;5099308;28;19935;-66
2022/09/01 04:52:06;;;;;;;;;;;;;;;-142.75;100.00;77501.50;5098386;28;20358;-66
2022/09/01 04:54:33;;;;;;;;;;;;;;;-142.75;100.00;77499.53;5098283;28;20404;-65
2022/09/01 04:56:59;;;;;;;;;;;;;;;-142.75;100.00;77499.53;5098527;28;19922;-66
2022/09/01 04:59:26;;;;;;;;;;;;;;;-142.75;100.00;77503.47;5100393;28;19948;-66
2022/09/01 05:01:53;;;;;;;;;;;;;;;-142.75;100.00;77499.53;5103516;28;20305;-66
2022/09/01 05:04:21;;;;;;;;;;;;;;;-142.75;100.00;77481.81;5104032;28;19916;-66
2022/09/01 05:06:59;;;;;;;;;;;;;;;-142.75;100.00;77489.69;5103779;28;19919;-66
2022/09/01 05:09:25;;;;;;;;;;;;;;;-142.75;100.00;77481.81;5103086;28;19912;-66
2022/09/01 05:11:51;;;;;;;;;;;;;;;-142.75;100.00;77477.88;5102750;28;19919;-66
2022/09/01 05:14:17;;;;;;;;;;;;;;;-142.75;100.00;77481.81;5102357;28;19916;-66
2022/09/01 05:16:44;;;;;;;;;;;;;;;-142.75;100.00;77471.97;5102334;28;20387;-66
2022/09/01 05:19:19;;;;;;;;;;;;;;;-142.75;100.00;77464.09;5102160;28;19923;-66
2022/09/01 05:21:45;;;;;;;;;;;;;;;-142.75;100.00;77468.03;5102300;28;19912;-65
2022/09/01 05:24:14;;;;;;;;;;;;;;;-142.75;100.00;77458.16;5101007;28;19916;-66
2022/09/01 05:26:41;;;;;;;;;;;;;;;-142.75;100.00;77440.44;5100596;28;20290;-66
2022/09/01 05:29:16;;;;;;;;;;;;;;;-142.75;100.00;77426.66;5101512;28;19912;-66
2022/09/01 05:31:42;;;;;;;;;;;;;;;-142.75;100.00;77416.81;5100338;28;19954;-65
2022/09/01 05:34:08;;;;;;;;;;;;;;;-142.75;100.00;77401.06;5099699;28;19916;-66
2022/09/01 05:36:35;;;;;;;;;;;;;;;-142.75;100.00;77385.31;5100319;28;19962;-66
2022/09/01 05:39:00;;;;;;;;;;;;;;;-142.75;100.00;77377.44;5099879;28;19923;-66
2022/09/01 05:41:27;;;;;;;;;;;;;;;-142.75;100.00;77367.59;5097568;28;19912;-66
2022/09/01 05:43:52;;;;;;;;;;;;;;;-142.75;100.00;77351.84;5097621;28;19916;-66
2022/09/01 05:46:19;;;;;;;;;;;;;;;-142.75;100.00;77377.44;5099078;28;19919;-66
2022/09/01 05:48:48;;;;;;;;;;;;;;;-142.75;100.00;77369.56;5098409;28;19912;-66
2022/09/01 05:51:16;;;;;;;;;;;;;;;-142.75;100.00;77353.81;5098631;28;19912;-66
2022/09/01 05:53:42;;;;;;;;;;;;;;;-142.75;100.00;77361.69;5097612;28;19918;-66
2022/09/01 05:56:08;;;;;;;;;;;;;;;-142.75;100.00;77330.19;5097913;28;20002;-66
2022/09/01 05:58:35;;;;;;;;;;;;;;;-142.75;100.00;77324.28;5096211;28;20373;-66
2022/09/01 06:01:00;;;;;;;;;;;;;;;-142.75;100.00;77314.44;5098026;28;20542;-66
2022/09/01 06:03:26;;;;;;;;;;;;;;;-142.75;100.00;77328.22;5097866;28;19916;-66
2022/09/01 06:05:52;;;;;;;;;;;;;;;-142.75;100.00;77353.81;5097761;28;19919;-66
2022/09/01 06:08:20;;;;;;;;;;;;;;;-142.75;100.00;77342.00;5096470;28;19912;-66
2022/09/01 06:10:47;;;;;;;;;;;;;;;-142.75;100.00;77342.00;5097057;28;20570;-66
2022/09/01 06:13:14;;;;;;;;;;;;;;;-142.75;100.00;77320.34;5094835;28;20361;-66
2022/09/01 06:15:39;;;;;;;;;;;;;;;-142.75;100.00;77284.91;5096329;28;19916;-66
2022/09/01 06:18:05;;;;;;;;;;;;;;;-142.75;100.00;77265.22;5095458;28;20321;-66
2022/09/01 06:20:31;;;;;;;;;;;;;;;-142.75;100.00;77239.63;5096344;28;19912;-65
2022/09/01 06:22:56;;;;;;;;;;;;;;;-142.75;100.00;77210.09;5095880;28;20485;-66
2022/09/01 06:25:22;;;;;;;;;;;;;;;-142.75;100.00;77210.09;5096027;28;19912;-66
2022/09/01 06:27:48;;;;;;;;;;;;;;;-142.75;100.00;77202.22;5095926;28;19971;-66
2022/09/01 06:30:16;;;;;;;;;;;;;;;-142.75;100.00;77158.91;5095796;28;19919;-66
2022/09/01 06:32:42;;;;;;;;;;;;;;;-142.75;100.00;77145.13;5094482;28;19968;-66
2022/09/01 06:35:10;;;;;;;;;;;;;;;-142.75;100.00;77125.44;5095560;28;19919;-66
2022/09/01 06:37:37;;;;;;;;;;;;;;;-142.75;100.00;77121.50;5094850;28;19919;-66
2022/09/01 06:40:02;;;;;;;;;;;;;;;-142.75;100.00;77103.78;5095726;28;19934;-65
2022/09/01 06:42:27;;;;;;;;;;;;;;;-142.75;100.00;77066.38;5093851;28;20385;-66
2022/09/01 06:44:53;;;;;;;;;;;;;;;-142.75;100.00;77070.31;5093815;28;20304;-66
2022/09/01 06:47:18;;;;;;;;;;;;;;;-142.75;100.00;77038.81;5095651;28;19919;-65
2022/09/01 06:49:43;;;;;;;;;;;;;;;-142.75;100.00;77017.16;5095963;28;19912;-66
2022/09/01 06:52:12;;;;;;;;;;;;;;;-142.75;100.00;76991.56;5095542;28;19916;-66
2022/09/01 06:54:40;;;;;;;;;;;;;;;-142.75;100.00;76971.88;5095620;28;19923;-66
2022/09/01 06:57:05;;;;;;;;;;;;;;;-142.75;100.00;76950.22;5096916;28;19949;-63
2022/09/01 06:59:31;;;;;;;;;;;;;;;-142.75;100.00;76922.66;5096394;28;19912;-63
2022/09/01 07:02:02;;;;;;;;;;;;;;;-142.75;100.00;76932.50;5094894;28;19970;-63
2022/09/01 07:04:29;;;;;;;;;;;;;;;-142.75;100.00;76899.03;5096849;28;19923;-64
2022/09/01 07:06:55;;;;;;;;;;;;;;;-142.75;100.00;76889.19;5094040;28;19915;-64
2022/09/01 07:09:21;;;;;;;;;;;;;;;-142.75;100.00;76893.13;5097395;28;20320;-63
2022/09/01 07:11:46;;;;;;;;;;;;;;;-142.75;100.00;76879.34;5095361;28;19951;-65
2022/09/01 07:14:14;;;;;;;;;;;;;;;-142.75;100.00;76861.63;5096455;28;19913;-65
2022/09/01 07:16:40;;;;;;;;;;;;;;;-142.75;100.00;76847.84;5094811;28;19970;-65
2022/09/01 07:19:12;;;;;;;;;;;;;;;-142.75;100.00;76845.88;5095566;28;19916;-65
2022/09/01 07:21:37;;;;;;;;;;;;;;;-142.75;100.00;76806.50;5089867;28;20062;-65
2022/09/01 07:24:04;;;;;;;;;;;;;;;-142.75;100.00;76814.38;5087740;28;19966;-65
2022/09/01 07:26:29;;;;;;;;;;;;;;;-142.75;100.00;76804.53;5084851;28;20057;-65
2022/09/01 07:28:55;;;;;;;;;;;;;;;-142.75;100.00;76798.66;5079175;28;20369;-65
2022/09/01 07:31:25;;;;;;;;;;;;;;;-142.75;100.00;76782.91;5082511;28;20401;-65
2022/09/01 07:33:51;;;;;;;;;;;;;;;-142.75;100.00;76775.03;5077671;28;19970;-65
2022/09/01 07:36:17;;;;;;;;;;;;;;;-142.75;100.00;76747.47;5081850;28;19955;-64
2022/09/01 07:38:43;;;;;;;;;;;;;;;-142.75;100.00;76731.72;5088368;28;20491;-65
2022/09/01 07:41:11;;;;;;;;;;;;;;;-142.75;100.00;76739.59;5083093;28;19979;-65
2022/09/01 07:43:38;;;;;;;;;;;;;;;-142.75;100.00;76733.69;5074799;28;20044;-64
2022/09/01 07:46:04;;;;;;;;;;;;;;;-142.75;100.00;76700.22;5074421;28;19920;-64
2022/09/01 07:48:29;;;;;;;;;;;;;;;-142.75;100.00;76674.63;5088187;28;20270;-64
2022/09/01 07:50:56;;;;;;;;;;;;;;;-142.75;100.00;76652.97;5084956;28;19912;-65
2022/09/01 07:53:25;;;;;;;;;;;;;;;-142.75;100.00;76617.53;5087013;28;19913;-64
2022/09/01 07:55:52;;;;;;;;;;;;;;;-142.75;100.00;76613.59;5084141;28;20035;-65
2022/09/01 07:58:19;;;;;;;;;;;;;;;-142.75;100.00;76609.66;5083868;28;20282;-64
2022/09/01 08:00:48;;;;;;;;;;;;;;;-142.75;100.00;76588.00;5078315;28;19912;-64
2022/09/01 08:03:14;;;;;;;;;;;;;;;-142.75;100.00;76599.81;5082341;28;19925;-65
2022/09/01 08:05:39;;;;;;;;;;;;;;;-142.75;100.00;76589.97;5083730;28;19969;-65
2022/09/01 08:08:05;;;;;;;;;;;;;;;-142.75;100.00;76550.59;5095557;28;19919;-65
2022/09/01 08:10:30;;;;;;;;;;;;;;;-142.75;100.00;76546.66;5098933;28;20010;-65
2022/09/01 08:12:56;;;;;;;;;;;;;;;-142.75;100.00;76542.72;5100308;28;19957;-65
2022/09/01 08:15:21;;;;;;;;;;;;;;;-142.75;100.00;76546.66;5099624;28;19916;-65
2022/09/01 08:17:47;;;;;;;;;;;;;;;-142.75;100.00;76515.19;5115065;22;20358;-67
2022/09/01 08:20:13;;;;;;;;;;;;;;;-142.75;100.00;76495.50;5053539;28;20004;-68
2022/09/01 08:22:38;;;;;;;;;;;;;;;-142.75;100.00;76473.84;5036470;28;19956;-68
2022/09/01 08:25:05;;;;;;;;;;;;;;;-142.75;100.00;76446.28;5054637;28;19916;-73
2022/09/01 08:27:30;;;;;;;;;;;;;;;-142.75;100.00;76410.84;5054290;28;19917;-68
2022/09/01 08:29:56;;;;;;;;;;;;;;;-142.75;100.00;76397.06;5053508;28;20298;-69
2022/09/01 08:32:21;;;;;;;;;;;;;;;-142.75;100.00;76391.16;5055184;28;19991;-69
2022/09/01 08:34:46;;;;;;;;;;;;;;;-142.75;100.00;76359.66;5053849;28;19986;-69
2022/09/01 08:37:12;;;;;;;;;;;;;;;-142.75;99.33;76371.47;5055629;28;20408;-69
2022/09/01 08:39:37;;;;;;;;;;;;;;;-142.75;96.91;76334.09;5055264;28;19977;-67
2022/09/01 08:42:23;;;;;;;;;;;;;;;-142.75;98.05;76306.53;5056394;28;20340;-69
2022/09/01 08:45:02;;;;;;;;;;;;;;;-142.75;99.72;76312.44;5055363;28;19923;-69
2022/09/01 08:47:27;;;;;;;;;;;;;;;-142.75;93.93;76265.19;5054362;28;19916;-69
2022/09/01 08:49:53;;;;;;;;;;;;;;;-142.75;89.75;76249.44;5057239;28;20020;-70
2022/09/01 08:52:33;;;;;;;;;;;;;;;-142.75;84.95;76277.00;5055580;28;19958;-69
2022/09/01 08:55:01;;;;;;;;;;;;;;;-142.75;90.62;76277.00;5056027;28;19913;-70
2022/09/01 08:57:32;;;;;;;;;;;;;;;-142.75;87.85;76267.16;5053697;28;19917;-70
2022/09/01 08:59:57;;;;;;;;;;;;;;;-142.75;90.65;76219.91;5055409;28;19917;-70
2022/09/01 09:02:41;;;;;;;;;;;;;;;-142.75;87.05;76212.03;5055062;28;19974;-69
2022/09/01 09:05:24;;;;;;;;;;;;;;;-142.75;80.42;76172.69;5053786;28;19921;-69
2022/09/01 09:07:52;;;;;;;;;;;;;;;-142.75;80.17;76149.06;5054518;28;19972;-69
2022/09/01 09:10:20;;;;;;;;;;;;;;;-142.75;80.87;76178.59;5054635;28;19952;-69
2022/09/01 09:12:50;;;;;;;;;;;;;;;-142.75;80.90;76184.50;5054771;28;19912;-69
2022/09/01 09:15:44;;;;;;;;;;;;;;;-142.75;83.46;76160.88;5054621;28;19913;-69
2022/09/01 09:18:27;;;;;;;;;;;;;;;-142.75;80.99;76141.19;5043091;28;20386;-69
2022/09/01 09:20:53;;;;;;;;;;;;;;;-142.75;78.13;76133.31;5054726;28;19948;-70
2022/09/01 09:23:28;;;;;;;;;;;;;;;-142.75;79.90;76125.44;5054556;28;19971;-69
2022/09/01 09:25:53;;;;;;;;;;;;;;;-142.75;73.85;76107.72;5054361;28;19912;-69
2022/09/01 09:28:19;;;;;;;;;;;;;;;-142.75;77.58;76090.00;5052496;28;20047;-69
2022/09/01 09:30:44;;;;;;;;;;;;;;;-142.75;77.63;76074.25;5054203;28;19913;-67
2022/09/01 09:33:29;;;;;;;;;;;;;;;-142.75;73.66;76088.03;5054451;28;19959;-70
2022/09/01 09:35:56;;;;;;;;;;;;;;;-142.75;74.11;76097.88;5054218;28;19920;-69
2022/09/01 09:38:30;;;;;;;;;;;;;;;-142.75;73.82;76109.69;5052457;28;19913;-69
2022/09/01 09:41:03;;;;;;;;;;;;;;;-142.75;76.40;76090.00;5053735;28;20382;-69
2022/09/01 09:43:30;;;;;;;;;;;;;;;-142.75;73.52;76101.81;5053086;28;19952;-69
2022/09/01 09:46:15;;;;;;;;;;;;;;;-142.75;74.73;76082.13;5054185;28;19913;-69
2022/09/01 09:48:40;;;;;;;;;;;;;;;-142.75;73.41;76044.75;5051938;28;19924;-69
2022/09/01 09:51:16;;;;;;;;;;;;;;;-142.75;71.13;75995.53;5053806;28;19913;-69
2022/09/01 09:53:41;;;;;;;;;;;;;;;-142.75;69.96;75981.75;5054204;28;20004;-70
2022/09/01 09:56:18;;;;;;;;;;;;;;;-142.75;69.44;75964.03;5052407;28;20015;-69
2022/09/01 09:58:45;;;;;;;;;;;;;;;-142.75;70.59;75969.94;5053713;28;19913;-69
2022/09/01 10:01:22;;;;;;;;;;;;;;;-142.75;70.33;75944.38;5052362;28;19916;-69
2022/09/01 10:03:48;;;;;;;;;;;;;;;-142.75;67.78;75942.41;5053712;28;20394;-69
2022/09/01 10:06:29;;;;;;;;;;;;;;;-142.75;69.50;75922.72;5053503;28;19913;-69
2022/09/01 10:08:55;;;;;;;;;;;;;;;-142.75;67.36;75891.22;5051665;28;20386;-69
2022/09/01 10:11:25;;;;;;;;;;;;;;;-142.75;66.53;75885.31;5052741;28;19966;-70
2022/09/01 10:13:51;;;;;;;;;;;;;;;-142.75;68.76;75928.63;5053522;28;19956;-70
2022/09/01 10:16:30;;;;;;;;;;;;;;;-142.75;67.72;75908.94;5053604;28;19913;-70
2022/09/01 10:18:59;;;;;;;;;;;;;;;-142.75;68.72;75910.91;5053096;28;19932;-67
2022/09/01 10:21:32;;;;;;;;;;;;;;;-142.75;64.33;75865.63;5053258;28;19912;-69
2022/09/01 10:23:58;;;;;;;;;;;;;;;-142.75;65.22;75930.59;5053421;28;20344;-69
2022/09/01 10:26:28;;;;;;;;;;;;;;;-142.75;67.03;75975.84;5053194;28;19965;-67
2022/09/01 10:28:53;;;;;;;;;;;;;;;-142.75;65.71;76003.41;5053065;28;20393;-69
2022/09/01 10:31:20;;;;;;;;;;;;;;;-142.75;66.46;76003.41;5053673;28;19913;-70
2022/09/01 10:33:45;;;;;;;;;;;;;;;-142.75;66.12;75952.25;5053235;28;20005;-69
2022/09/01 10:36:13;;;;;;;;;;;;;;;-142.75;65.04;75924.69;5053722;28;20333;-69
2022/09/01 10:38:38;;;;;;;;;;;;;;;-142.75;64.61;75918.78;5053395;28;20378;-70
2022/09/01 10:41:06;;;;;;;;;;;;;;;-142.75;64.95;75867.59;5052089;28;19920;-69
2022/09/01 10:43:37;;;;;;;;;;;;;;;-142.75;63.23;75877.44;5053560;28;19963;-70
2022/09/01 10:46:09;;;;;;;;;;;;;;;-142.75;61.88;75908.94;5053138;28;19912;-70
2022/09/01 10:48:34;;;;;;;;;;;;;;;-142.75;63.03;75924.69;5053339;28;19937;-70
2022/09/01 10:51:12;;;;;;;;;;;;;;;-142.75;62.60;75918.78;5054042;28;20382;-70
2022/09/01 10:53:37;;;;;;;;;;;;;;;-142.75;63.04;75932.56;5053811;28;19927;-70
2022/09/01 10:56:08;;;;;;;;;;;;;;;-142.75;62.71;75956.19;5053014;28;19913;-68
2022/09/01 10:58:38;;;;;;;;;;;;;;;-142.75;63.70;75889.25;5052367;28;19912;-70
2022/09/01 11:01:04;;;;;;;;;;;;;;;-142.75;62.30;75871.53;5053593;28;20378;-70
2022/09/01 11:03:35;;;;;;;;;;;;;;;-142.75;61.37;75826.28;5053508;28;19962;-69
2022/09/01 11:06:02;;;;;;;;;;;;;;;-142.75;58.46;75798.72;5053915;28;20000;-70
2022/09/01 11:08:27;;;;;;;;;;;;;;;-142.75;59.54;75853.84;5051984;28;19921;-71
2022/09/01 11:10:53;;;;;;;;;;;;;;;-142.75;58.29;75806.59;5053526;28;20045;-70
2022/09/01 11:13:36;;;;;;;;;;;;;;;-142.75;58.70;75782.97;5052518;28;19916;-70
2022/09/01 11:16:20;;;;;;;;;;;;;;;-142.75;56.28;75796.75;5053251;28;20314;-69
2022/09/01 11:18:46;;;;;;;;;;;;;;;-142.75;56.10;75781.00;5052709;28;19916;-70
2022/09/01 11:21:24;;;;;;;;;;;;;;;-142.75;55.70;75727.88;5054078;28;19913;-70
2022/09/01 11:23:49;;;;;;;;;;;;;;;-142.75;54.43;75706.22;5053903;28;19916;-71
2022/09/01 11:26:36;;;;;;;;;;;;;;;-142.75;54.85;75725.91;5053385;28;19919;-69
2022/09/01 11:29:01;;;;;;;;;;;;;;;-142.75;53.18;75704.25;5053438;28;20283;-69
2022/09/01 11:31:28;;;;;;;;;;;;;;;-142.75;55.01;75718.03;5053482;28;19916;-70
2022/09/01 11:34:30;;;;;;;;;;;;;;;-142.75;52.80;75696.38;5053847;28;19913;-70
2022/09/01 11:36:58;;;;;;;;;;;;;;;-142.75;54.95;75690.47;5031467;28;19958;-70
2022/09/01 11:39:29;;;;;;;;;;;;;;;-142.75;54.07;75767.22;5044324;28;20007;-69
2022/09/01 11:41:57;;;;;;;;;;;;;;;-142.75;52.99;75771.16;5053338;28;19971;-70
2022/09/01 11:44:22;;;;;;;;;;;;;;;-142.75;52.47;75720.00;5052993;28;20382;-70
2022/09/01 11:46:48;;;;;;;;;;;;;;;-142.75;50.68;75784.94;5052977;28;19917;-70
2022/09/01 11:49:26;;;;;;;;;;;;;;;-142.75;53.29;75767.22;5053218;28;19913;-70
2022/09/01 11:51:52;;;;;;;;;;;;;;;-142.75;50.15;75755.44;5052958;28;19917;-70
2022/09/01 11:54:17;;;;;;;;;;;;;;;-142.75;53.96;75735.75;5052792;28;20013;-70
2022/09/01 11:56:42;;;;;;;;;;;;;;;-142.75;51.68;75706.22;5050892;28;19967;-70
2022/09/01 11:59:08;;;;;;;;;;;;;;;-142.75;47.74;75611.75;5049449;28;19916;-70
2022/09/01 12:01:34;;;;;;;;;;;;;;;-142.75;46.74;75562.56;5052800;28;20290;-70
2022/09/01 12:04:21;;;;;;;;;;;;;;;-142.75;48.60;75629.47;5052028;28;19924;-70
2022/09/01 12:06:56;;;;;;;;;;;;;;;-142.75;48.52;75629.47;5052411;28;19912;-70
2022/09/01 12:09:29;;;;;;;;;;;;;;;-142.75;44.25;75615.69;5053152;28;19919;-70
2022/09/01 12:11:55;;;;;;;;;;;;;;;-142.75;42.57;75623.56;5051902;28;20440;-70
2022/09/01 12:14:21;;;;;;;;;;;;;;;-142.75;47.29;75672.78;5052922;28;19917;-70
2022/09/01 12:16:54;;;;;;;;;;;;;;;-142.75;44.62;75657.03;5052341;28;19913;-69
2022/09/01 12:19:24;;;;;;;;;;;;;;;-142.75;42.70;75655.06;5053475;28;20286;-70
2022/09/01 12:22:16;;;;;;;;;;;;;;;-142.75;43.99;75716.06;5053694;28;20011;-70
2022/09/01 12:24:46;;;;;;;;;;;;;;;-142.75;41.56;75666.88;5051508;28;19949;-70
2022/09/01 12:27:11;;;;;;;;;;;;;;;-142.75;45.48;75668.84;5053246;28;20378;-70
2022/09/01 12:29:36;;;;;;;;;;;;;;;-142.75;45.20;75682.59;5052503;28;19958;-70